createdAt,value
2018-07-17T00:01:22.000Z,97064.57
2018-07-17T00:03:57.230Z,97054.45
2018-07-17T00:06:30.064Z,97033.52
2018-07-17T00:09:03.048Z,97013.66
2018-07-17T00:11:38.864Z,97007.18
2018-07-17T00:14:25.239Z,97015.34
2018-07-17T00:17:08.665Z,97021.81
2018-07-17T00:19:44.366Z,97019.17
2018-07-17T00:22:21.289Z,97027.05
2018-07-17T00:25:04.640Z,97021.16
2018-07-17T00:27:38.893Z,97018.59
2018-07-17T00:30:48.610Z,97020.67
2018-07-17T00:33:21.733Z,97025.81
2018-07-17T00:35:54.487Z,97006.48
2018-07-17T00:38:40.072Z,96997.14
2018-07-17T00:41:40.473Z,97000.55
2018-07-17T00:44:18.375Z,97000.41
2018-07-17T00:46:57.651Z,96999.56
2018-07-17T00:49:36.165Z,96993.98
2018-07-17T00:52:19.076Z,96999.70
2018-07-17T00:54:55.667Z,97002.40
2018-07-17T00:57:29.627Z,97000.30
2018-07-17T01:00:20.664Z,96988.25
2018-07-17T01:03:04.108Z,96980.15
2018-07-17T01:05:46.245Z,96963.32
2018-07-17T01:08:26.812Z,96963.70
2018-07-17T01:11:29.348Z,96949.34
2018-07-17T01:14:46.549Z,96944.34
2018-07-17T01:17:37.747Z,96949.97
2018-07-17T01:20:18.373Z,96950.45
2018-07-17T01:23:13.415Z,96955.34
2018-07-17T01:25:45.603Z,96937.43
2018-07-17T01:28:20.222Z,96928.77
2018-07-17T01:30:58.765Z,96922.33
2018-07-17T01:33:30.713Z,96916.16
2018-07-17T01:36:21.020Z,96908.20
2018-07-17T01:39:00.611Z,96898.98
2018-07-17T01:41:33.108Z,96890.22
2018-07-17T01:44:06.567Z,96892.73
2018-07-17T01:47:03.571Z,96898.23
2018-07-17T01:49:44.140Z,96894.19
2018-07-17T01:52:18.335Z,96892.67
2018-07-17T01:54:50.082Z,96894.13
2018-07-17T01:57:22.139Z,96890.08
2018-07-17T02:00:12.379Z,96895.00
2018-07-17T02:02:45.309Z,96881.95
2018-07-17T02:05:20.397Z,96881.16
2018-07-17T02:08:04.756Z,96877.32
2018-07-17T02:10:44.808Z,96869.55
2018-07-17T02:13:19.814Z,96875.84
2018-07-17T02:15:53.728Z,96884.48
2018-07-17T02:18:25.698Z,96894.41
2018-07-17T02:21:04.018Z,96883.22
2018-07-17T02:23:47.280Z,96881.22
2018-07-17T02:26:19.952Z,96882.78
2018-07-17T02:29:09.422Z,96887.27
2018-07-17T02:31:42.496Z,96889.06
2018-07-17T02:34:22.850Z,96888.38
2018-07-17T02:37:01.811Z,96884.66
2018-07-17T02:39:49.767Z,96878.95
2018-07-17T02:42:23.224Z,96881.20
2018-07-17T02:45:12.872Z,96885.23
2018-07-17T02:47:57.546Z,96888.14
2018-07-17T02:50:44.782Z,96890.95
2018-07-17T02:53:22.100Z,96888.45
2018-07-17T02:55:56.497Z,96889.92
2018-07-17T02:58:42.582Z,96904.11
2018-07-17T03:01:19.816Z,96904.69
2018-07-17T03:03:54.374Z,96897.69
2018-07-17T03:06:37.232Z,96904.97
2018-07-17T03:28:14.926Z,96938.69
2018-07-17T03:30:47.119Z,96938.77
2018-07-17T03:33:19.810Z,96939.42
2018-07-17T03:35:51.673Z,96957.05
2018-07-17T03:38:24.113Z,96955.79
2018-07-17T03:40:56.732Z,96963.08
2018-07-17T03:43:30.287Z,96967.40
2018-07-17T03:46:04.171Z,96960.36
2018-07-17T03:48:35.875Z,96969.88
2018-07-17T03:51:07.946Z,96973.53
2018-07-17T03:53:39.833Z,96970.38
2018-07-17T03:56:11.508Z,96984.46
2018-07-17T03:58:43.323Z,96977.71
2018-07-17T04:01:15.182Z,96981.86
2018-07-17T04:03:47.817Z,96984.88
2018-07-17T04:06:19.755Z,96990.30
2018-07-17T04:08:51.566Z,96997.77
2018-07-17T04:11:23.438Z,96998.47
2018-07-17T04:13:54.631Z,96995.40
2018-07-17T04:16:26.327Z,96995.02
2018-07-17T04:18:58.125Z,96993.34
2018-07-17T04:21:29.970Z,96989.29
2018-07-17T04:24:01.825Z,96994.05
2018-07-17T04:26:33.626Z,96998.32
2018-07-17T04:29:05.706Z,97001.20
2018-07-17T04:31:37.110Z,96999.08
2018-07-17T04:34:08.363Z,97002.83
2018-07-17T04:36:39.527Z,97001.22
2018-07-17T04:39:13.197Z,97001.59
2018-07-17T04:41:44.318Z,97000.10
2018-07-17T04:44:16.231Z,97000.62
2018-07-17T04:46:51.600Z,97009.84
2018-07-17T04:49:23.668Z,97005.58
2018-07-17T04:51:59.201Z,97009.48
2018-07-17T04:54:31.910Z,97013.45
2018-07-17T04:57:03.791Z,97014.95
2018-07-17T04:59:38.819Z,97013.42
2018-07-17T05:02:10.566Z,97012.58
2018-07-17T05:04:41.871Z,97012.39
2018-07-17T05:07:13.569Z,97017.61
2018-07-17T05:09:45.581Z,97018.86
2018-07-17T05:12:18.692Z,97015.10
2018-07-17T05:14:50.393Z,97017.75
2018-07-17T05:17:22.167Z,97016.00
2018-07-17T05:19:54.906Z,97011.08
2018-07-17T05:22:55.653Z,97010.98
2018-07-17T05:26:11.190Z,97019.96
2018-07-17T05:29:12.051Z,97011.88
2018-07-17T05:32:07.050Z,97011.88
2018-07-17T05:34:42.991Z,97012.81
2018-07-17T05:37:14.806Z,97008.86
2018-07-17T05:39:47.152Z,97014.53
2018-07-17T05:42:19.378Z,97014.77
2018-07-17T05:44:50.621Z,97014.32
2018-07-17T05:47:22.360Z,97013.81
2018-07-17T05:49:54.087Z,97016.14
2018-07-17T05:52:25.936Z,97012.59
2018-07-17T05:54:57.739Z,97007.48
2018-07-17T05:57:29.475Z,97015.95
2018-07-17T06:00:01.315Z,97012.88
2018-07-17T06:02:33.170Z,97018.96
2018-07-17T06:05:05.030Z,97023.63
2018-07-17T06:07:37.152Z,97025.66
2018-07-17T06:10:08.406Z,97022.59
2018-07-17T06:12:40.003Z,97026.04
2018-07-17T06:15:14.754Z,97018.45
2018-07-17T06:17:47.759Z,97026.27
2018-07-17T06:20:21.707Z,97032.54
2018-07-17T06:22:53.450Z,97031.28
2018-07-17T06:25:25.347Z,97030.91
2018-07-17T06:27:57.429Z,97033.03
2018-07-17T06:30:29.295Z,97030.89
2018-07-17T06:33:01.146Z,97038.66
2018-07-17T06:35:32.877Z,97034.45
2018-07-17T06:38:04.726Z,97032.94
2018-07-17T06:40:35.960Z,97038.69
2018-07-17T06:43:08.667Z,97041.75
2018-07-17T06:45:39.870Z,97043.61
2018-07-17T06:48:11.465Z,97047.92
2018-07-17T06:50:46.918Z,97055.77
2018-07-17T06:53:19.414Z,97062.44
2018-07-17T06:55:54.201Z,97065.06
2018-07-17T06:58:39.944Z,97066.51
2018-07-17T07:01:11.594Z,97069.22
2018-07-17T07:03:45.471Z,97076.57
2018-07-17T07:06:17.338Z,97073.09
2018-07-17T07:08:49.047Z,97073.64
2018-07-17T07:11:21.800Z,97085.62
2018-07-17T07:13:53.714Z,97090.96
2018-07-17T07:16:25.518Z,97086.25
2018-07-17T07:18:57.490Z,97081.70
2018-07-17T07:21:32.638Z,97083.98
2018-07-17T07:24:04.674Z,97085.34
2018-07-17T07:26:36.601Z,97082.86
2018-07-17T07:29:09.862Z,97089.67
2018-07-17T07:31:41.710Z,97086.96
2018-07-17T07:34:14.452Z,97085.84
2018-07-17T07:36:46.000Z,97089.96
2018-07-17T07:39:18.304Z,97093.64
2018-07-17T07:41:50.598Z,97097.15
2018-07-17T07:44:22.236Z,97092.55
2018-07-17T07:46:53.878Z,97089.27
2018-07-17T07:49:25.967Z,97096.78
2018-07-17T07:51:57.782Z,97090.80
2018-07-17T07:54:29.510Z,97096.42
2018-07-17T07:57:03.443Z,97090.21
2018-07-17T07:59:35.323Z,97094.87
2018-07-17T08:02:07.115Z,97090.60
2018-07-17T08:04:39.234Z,97094.88
2018-07-17T08:07:11.134Z,97094.96
2018-07-17T08:09:43.061Z,97098.23
2018-07-17T08:12:14.811Z,97086.68
2018-07-17T08:14:46.753Z,97083.87
2018-07-17T08:17:18.817Z,97084.70
2018-07-17T08:19:50.564Z,97089.02
2018-07-17T08:22:22.425Z,97091.13
2018-07-17T08:24:54.195Z,97087.51
2018-07-17T08:27:26.101Z,97089.00
2018-07-17T08:29:57.354Z,97091.61
2018-07-17T08:32:29.149Z,97094.82
2018-07-17T08:35:01.962Z,97099.94
2018-07-17T08:37:33.912Z,97101.47
2018-07-17T08:40:05.921Z,97098.45
2018-07-17T08:42:38.625Z,97104.17
2018-07-17T08:45:10.494Z,97108.11
2018-07-17T08:47:43.684Z,97105.67
2018-07-17T08:50:21.119Z,97110.97
2018-07-17T08:52:53.978Z,97117.17
2018-07-17T08:55:25.843Z,97109.17
2018-07-17T08:57:57.623Z,97106.45
2018-07-17T09:00:29.533Z,97110.83
2018-07-17T09:03:01.660Z,97120.45
2018-07-17T09:05:35.892Z,97118.52
2018-07-17T09:08:17.697Z,97124.48
2018-07-17T09:10:48.851Z,97122.04
2018-07-17T09:13:20.462Z,97127.17
2018-07-17T09:15:57.546Z,97126.33
2018-07-17T09:18:30.636Z,97130.91
2018-07-17T09:21:02.556Z,97131.49
2018-07-17T09:23:34.799Z,97131.42
2018-07-17T09:26:06.165Z,97128.92
2018-07-17T09:28:37.656Z,97132.95
2018-07-17T09:31:09.482Z,97131.89
2018-07-17T09:33:41.198Z,97135.47
2018-07-17T09:36:13.069Z,97135.63
2018-07-17T09:38:44.264Z,97133.31
2018-07-17T09:41:31.994Z,97130.42
2018-07-17T09:44:04.459Z,97128.27
2018-07-17T09:46:35.620Z,97132.32
2018-07-17T09:49:07.555Z,97142.03
2018-07-17T09:51:40.076Z,97140.48
2018-07-17T09:54:12.900Z,97142.79
2018-07-17T09:56:47.832Z,97145.70
2018-07-17T09:59:19.944Z,97148.02
2018-07-17T10:01:56.537Z,97140.13
2018-07-17T10:04:28.351Z,97143.62
2018-07-17T10:07:00.250Z,97133.58
2018-07-17T10:09:32.236Z,97136.52
2018-07-17T10:12:03.977Z,97141.29
2018-07-17T10:14:36.366Z,97138.31
2018-07-17T10:17:08.271Z,97140.20
2018-07-17T10:19:40.135Z,97148.11
2018-07-17T10:22:11.890Z,97152.47
2018-07-17T10:24:43.782Z,97145.83
2018-07-17T10:27:16.323Z,97148.89
2018-07-17T10:29:48.081Z,97139.62
2018-07-17T10:32:20.001Z,97153.53
2018-07-17T10:34:51.659Z,97146.08
2018-07-17T10:37:23.730Z,97146.93
2018-07-17T10:39:55.390Z,97152.44
2018-07-17T10:42:27.255Z,97153.53
2018-07-17T10:44:59.033Z,97140.34
2018-07-17T10:47:30.853Z,97144.80
2018-07-17T10:50:02.944Z,97148.63
2018-07-17T10:57:02.232Z,97150.66
2018-07-17T11:00:13.211Z,97151.85
2018-07-17T11:03:03.576Z,97153.04
2018-07-17T11:05:35.747Z,97151.16
2018-07-17T11:08:07.638Z,97146.97
2018-07-17T11:10:39.370Z,97147.45
2018-07-17T11:13:11.218Z,97137.33
2018-07-17T11:15:42.604Z,97148.47
2018-07-17T11:18:14.176Z,97155.31
2018-07-17T11:20:46.046Z,97151.72
2018-07-17T11:23:18.419Z,97148.47
2018-07-17T11:25:50.318Z,97144.29
2018-07-17T11:28:22.091Z,97148.17
2018-07-17T11:30:53.867Z,97143.53
2018-07-17T11:33:25.699Z,97136.64
2018-07-17T11:35:56.843Z,97144.13
2018-07-17T11:38:28.561Z,97142.91
2018-07-17T11:41:00.188Z,97147.86
2018-07-17T11:43:31.892Z,97148.44
2018-07-17T11:46:03.771Z,97145.29
2018-07-17T11:48:35.120Z,97147.83
2018-07-17T11:51:06.822Z,97148.23
2018-07-17T11:53:38.640Z,97145.28
2018-07-17T11:56:10.561Z,97139.08
2018-07-17T11:58:42.446Z,97138.18
2018-07-17T12:01:14.568Z,97144.16
2018-07-17T12:04:11.999Z,97141.31
2018-07-17T12:08:07.329Z,97143.34
2018-07-17T12:14:27.049Z,97150.48
2018-07-17T12:16:58.810Z,97148.55
2018-07-17T12:19:33.902Z,97149.99
2018-07-17T12:22:11.628Z,97145.52
2018-07-17T12:24:43.454Z,97162.30
2018-07-17T12:27:17.338Z,97162.78
2018-07-17T12:29:49.220Z,97156.69
2018-07-17T12:32:21.390Z,97156.11
2018-07-17T12:34:52.690Z,97150.70
2018-07-17T12:37:24.497Z,97152.11
2018-07-17T12:39:57.423Z,97160.05
2018-07-17T12:42:29.133Z,97160.70
2018-07-17T12:45:01.005Z,97161.92
2018-07-17T12:47:33.622Z,97160.12
2018-07-17T12:50:05.860Z,97158.48
2018-07-17T12:52:37.930Z,97150.27
2018-07-17T12:55:15.145Z,97150.45
2018-07-17T12:57:48.209Z,97154.62
2018-07-17T13:00:24.252Z,97155.10
2018-07-17T13:02:55.742Z,97157.53
2018-07-17T13:05:27.376Z,97163.13
2018-07-17T13:07:59.028Z,97161.71
2018-07-17T13:10:30.548Z,97153.43
2018-07-17T13:13:02.312Z,97151.88
2018-07-17T13:15:33.902Z,97153.44
2018-07-17T13:18:05.515Z,97147.86
2018-07-17T13:20:37.134Z,97154.62
2018-07-17T13:23:08.335Z,97151.19
2018-07-17T13:25:39.863Z,97149.97
2018-07-17T13:28:11.529Z,97149.22
2018-07-17T13:30:43.223Z,97148.36
2018-07-17T13:33:14.531Z,97146.79
2018-07-17T13:35:46.086Z,97152.88
2018-07-17T13:38:18.284Z,97157.29
2018-07-17T13:40:50.121Z,97152.11
2018-07-17T13:43:21.797Z,97151.97
2018-07-17T13:45:53.547Z,97151.60
2018-07-17T13:48:25.107Z,97150.23
2018-07-17T13:50:57.135Z,97150.44
2018-07-17T13:53:28.905Z,97145.55
2018-07-17T13:56:00.708Z,97146.34
2018-07-17T13:58:32.422Z,97146.59
2018-07-17T14:01:04.137Z,97141.27
2018-07-17T14:03:35.267Z,97144.25
2018-07-17T14:06:07.108Z,97146.72
2018-07-17T14:08:38.960Z,97152.23
2018-07-17T14:11:10.835Z,97148.44
2018-07-17T14:13:42.596Z,97142.34
2018-07-17T14:16:14.277Z,97140.86
2018-07-17T14:18:45.864Z,97139.41
2018-07-17T14:21:18.836Z,97142.04
2018-07-17T14:23:51.249Z,97139.84
2018-07-17T14:26:23.462Z,97133.45
2018-07-17T14:28:55.100Z,97139.44
2018-07-17T14:31:26.717Z,97137.17
2018-07-17T14:33:58.393Z,97139.93
2018-07-17T14:36:30.172Z,97133.82
2018-07-17T14:39:01.809Z,97135.45
2018-07-17T14:41:33.497Z,97142.19
2018-07-17T14:44:05.196Z,97136.41
2018-07-17T14:46:36.409Z,97139.90
2018-07-17T14:49:08.013Z,97142.70
2018-07-17T14:51:39.717Z,97137.88
2018-07-17T14:54:11.320Z,97143.83
2018-07-17T14:56:43.034Z,97140.69
2018-07-17T14:59:14.650Z,97135.22
2018-07-17T15:01:46.785Z,97141.29
2018-07-17T15:04:19.046Z,97134.37
2018-07-17T15:06:50.865Z,97142.80
2018-07-17T15:09:22.516Z,97144.10
2018-07-17T15:11:54.227Z,97144.91
2018-07-17T15:14:25.860Z,97145.03
2018-07-17T15:16:57.618Z,97135.23
2018-07-17T15:19:28.873Z,97136.16
2018-07-17T15:22:00.431Z,97134.50
2018-07-17T15:24:31.723Z,97144.70
2018-07-17T15:27:03.356Z,97141.11
2018-07-17T15:29:35.048Z,97135.02
2018-07-17T15:34:43.128Z,97135.02
2018-07-17T15:37:14.802Z,97132.82
2018-07-17T15:39:46.565Z,97130.05
2018-07-17T15:42:18.885Z,97140.26
2018-07-17T15:44:50.476Z,97141.98
2018-07-17T15:47:21.603Z,97139.38
2018-07-17T15:49:53.489Z,97133.98
2018-07-17T15:52:25.649Z,97132.31
2018-07-17T15:54:58.028Z,97137.53
2018-07-17T15:57:30.632Z,97129.91
2018-07-17T16:00:02.392Z,97129.23
2018-07-17T16:02:34.295Z,97124.27
2018-07-17T16:05:05.983Z,97128.66
2018-07-17T16:07:38.316Z,97122.31
2018-07-17T16:10:10.007Z,97119.87
2018-07-17T16:12:41.911Z,97115.45
2018-07-17T16:15:16.651Z,97122.20
2018-07-17T16:17:48.494Z,97127.03
2018-07-17T16:20:22.433Z,97121.34
2018-07-17T16:22:54.431Z,97124.40
2018-07-17T16:25:26.340Z,97121.31
2018-07-17T16:27:58.584Z,97127.45
2018-07-17T16:30:30.224Z,97127.70
2018-07-17T16:33:02.212Z,97127.41
2018-07-17T16:35:33.602Z,97125.30
2018-07-17T16:38:05.297Z,97127.78
2018-07-17T16:40:37.067Z,97121.84
2018-07-17T16:43:08.753Z,97122.61
2018-07-17T16:45:40.568Z,97120.13
2018-07-17T16:48:12.266Z,97129.55
2018-07-17T16:50:44.242Z,97128.99
2018-07-17T16:53:16.085Z,97126.02
2018-07-17T16:55:48.231Z,97126.76
2018-07-17T16:58:20.817Z,97126.44
2018-07-17T17:00:52.786Z,97120.05
2018-07-17T17:03:25.329Z,97126.80
2018-07-17T17:05:57.331Z,97128.06
2018-07-17T17:08:29.370Z,97127.61
2018-07-17T17:11:03.764Z,97131.99
2018-07-17T17:13:35.700Z,97132.72
2018-07-17T17:16:07.776Z,97126.45
2018-07-17T17:18:39.762Z,97129.00
2018-07-17T17:21:11.277Z,97130.66
2018-07-17T17:23:43.110Z,97133.25
2018-07-17T17:26:14.955Z,97134.90
2018-07-17T17:28:46.830Z,97138.32
2018-07-17T17:31:19.299Z,97134.15
2018-07-17T17:33:51.208Z,97136.13
2018-07-17T17:36:26.265Z,97147.87
2018-07-17T17:38:58.035Z,97157.20
2018-07-17T17:41:30.016Z,97156.94
2018-07-17T17:44:02.954Z,97156.19
2018-07-17T17:46:34.597Z,97159.09
2018-07-17T17:49:06.585Z,97165.36
2018-07-17T17:51:39.373Z,97166.16
2018-07-17T17:54:11.333Z,97165.26
2018-07-17T17:56:43.117Z,97170.59
2018-07-17T17:59:20.064Z,97166.48
2018-07-17T18:01:55.491Z,97171.76
2018-07-17T18:04:27.183Z,97160.55
2018-07-17T18:06:59.787Z,97172.35
2018-07-17T18:09:31.600Z,97169.09
2018-07-17T18:12:04.384Z,97169.60
2018-07-17T18:14:36.281Z,97173.56
2018-07-17T18:17:09.145Z,97165.50
2018-07-17T18:19:43.117Z,97174.95
2018-07-17T18:22:14.964Z,97176.08
2018-07-17T18:24:46.881Z,97181.84
2018-07-17T18:27:19.044Z,97184.41
2018-07-17T18:29:50.805Z,97182.32
2018-07-17T18:32:24.008Z,97183.68
2018-07-17T18:34:55.913Z,97189.57
2018-07-17T18:37:27.888Z,97198.89
2018-07-17T18:39:59.669Z,97195.55
2018-07-17T18:42:33.398Z,97197.86
2018-07-17T18:45:05.729Z,97193.70
2018-07-17T18:47:37.572Z,97195.52
2018-07-17T18:50:12.859Z,97198.78
2018-07-17T18:52:42.305Z,97202.31
2018-07-17T18:55:15.452Z,97210.16
2018-07-17T18:57:47.997Z,97212.85
2018-07-17T19:00:20.487Z,97209.22
2018-07-17T19:02:52.104Z,97214.53
2018-07-17T19:05:24.472Z,97218.19
2018-07-17T19:07:55.646Z,97215.14
2018-07-17T19:10:28.506Z,97220.77
2018-07-17T19:12:59.591Z,97227.30
2018-07-17T19:15:31.161Z,97227.37
2018-07-17T19:18:02.820Z,97238.88
2018-07-17T19:20:34.640Z,97239.02
2018-07-17T19:23:06.424Z,97246.59
2018-07-17T19:25:38.205Z,97254.08
2018-07-17T19:28:09.973Z,97255.15
2018-07-17T19:30:41.697Z,97253.99
2018-07-17T19:33:13.849Z,97252.75
2018-07-17T19:35:45.666Z,97264.01
2018-07-17T19:38:17.794Z,97269.28
2018-07-17T19:40:54.901Z,97274.73
2018-07-17T19:43:26.467Z,97288.06
2018-07-17T19:45:58.669Z,97290.36
2018-07-17T19:48:30.469Z,97296.19
2018-07-17T19:51:02.339Z,97301.80
2018-07-17T19:53:34.223Z,97307.77
2018-07-17T19:56:05.798Z,97309.73
2018-07-17T19:58:37.375Z,97304.70
2018-07-17T20:01:09.790Z,97309.82
2018-07-17T20:03:41.715Z,97307.65
2018-07-17T20:06:13.603Z,97308.53
2018-07-17T20:08:45.236Z,97309.14
2018-07-17T20:11:19.889Z,97310.22
2018-07-17T20:13:51.904Z,97309.22
2018-07-17T20:16:24.284Z,97312.23
2018-07-17T20:18:56.220Z,97313.44
2018-07-17T20:21:28.419Z,97316.17
2018-07-17T20:23:59.488Z,97315.97
2018-07-17T20:26:31.598Z,97315.13
2018-07-17T20:29:03.709Z,97322.17
2018-07-17T20:31:36.185Z,97323.98
2018-07-17T20:34:52.813Z,97320.85
2018-07-17T20:37:28.919Z,97325.52
2018-07-17T20:40:00.245Z,97322.44
2018-07-17T20:42:33.913Z,97319.28
2018-07-17T20:45:06.028Z,97319.13
2018-07-17T20:47:37.687Z,97320.38
2018-07-17T20:50:10.208Z,97322.52
2018-07-17T20:52:42.803Z,97320.38
2018-07-17T20:55:18.414Z,97324.95
2018-07-17T20:57:50.200Z,97311.65
2018-07-17T21:00:23.823Z,97317.08
2018-07-17T21:02:55.569Z,97318.61
2018-07-17T21:05:27.380Z,97319.64
2018-07-17T21:07:58.669Z,97319.17
2018-07-17T21:10:35.677Z,97323.22
2018-07-17T21:13:07.457Z,97331.77
2018-07-17T21:15:39.107Z,97338.81
2018-07-17T21:18:10.883Z,97341.61
2018-07-17T21:20:42.086Z,97342.81
2018-07-17T21:23:13.692Z,97346.02
2018-07-17T21:26:01.460Z,97342.14
2018-07-17T21:28:33.920Z,97339.07
2018-07-17T21:31:05.701Z,97344.12
2018-07-17T21:33:37.610Z,97353.70
2018-07-17T21:36:10.387Z,97355.42
2018-07-17T21:38:41.793Z,97358.72
2018-07-17T21:41:14.127Z,97365.93
2018-07-17T21:43:45.857Z,97356.61
2018-07-17T21:46:18.607Z,97353.36
2018-07-17T21:48:50.783Z,97351.11
2018-07-17T21:51:22.660Z,97348.75
2018-07-17T21:53:54.410Z,97355.55
2018-07-17T21:56:26.138Z,97353.33
2018-07-17T21:58:58.150Z,97351.78
2018-07-17T22:01:30.008Z,97356.80
2018-07-17T22:04:22.603Z,97355.39
2018-07-17T22:06:54.922Z,97360.78
2018-07-17T22:09:26.785Z,97359.72
2018-07-17T22:11:58.803Z,97354.61
2018-07-17T22:14:30.677Z,97359.08
2018-07-17T22:17:03.029Z,97355.84
2018-07-17T22:19:35.481Z,97362.33
2018-07-17T22:22:07.286Z,97364.47
2018-07-17T22:24:39.103Z,97366.53
2018-07-17T22:27:10.253Z,97363.93
2018-07-17T22:29:41.896Z,97358.04
2018-07-17T22:32:15.450Z,97364.37
2018-07-17T22:34:48.103Z,97364.37
2018-07-17T22:37:20.788Z,97364.94
2018-07-17T22:39:52.541Z,97366.48
2018-07-17T22:42:24.609Z,97368.45
2018-07-17T22:44:56.485Z,97363.98
2018-07-17T22:47:30.016Z,97369.77
2018-07-17T22:50:04.787Z,97370.45
2018-07-17T22:52:36.352Z,97370.16
2018-07-17T22:55:08.242Z,97365.53
2018-07-17T22:57:40.685Z,97362.94
2018-07-17T23:00:12.653Z,97358.66
2018-07-17T23:02:44.319Z,97362.91
2018-07-17T23:05:21.392Z,97355.61
2018-07-17T23:07:53.224Z,97365.25
2018-07-17T23:10:25.202Z,97362.83
2018-07-17T23:12:56.458Z,97368.67
2018-07-17T23:15:27.749Z,97370.12
2018-07-17T23:17:59.253Z,97367.73
2018-07-17T23:20:30.499Z,97378.73
2018-07-17T23:23:02.230Z,97378.27
2018-07-17T23:25:34.491Z,97375.97
2018-07-17T23:28:07.597Z,97378.13
2018-07-17T23:34:50.701Z,97376.33
2018-07-17T23:37:22.710Z,97370.47
2018-07-17T23:39:54.566Z,97383.16
2018-07-17T23:42:28.528Z,97378.05
2018-07-17T23:45:00.724Z,97388.41
2018-07-17T23:47:32.542Z,97386.14
2018-07-17T23:50:04.593Z,97394.02
2018-07-17T23:53:16.560Z,97389.22
2018-07-17T23:55:48.563Z,97388.86
2018-07-17T23:58:20.603Z,97382.70
